Iwakuni Marine Corps Air Station
RJOI : now visible

Airfield :











YOU CAN JOIN US ON...

 
LOGIN :

Register | Disclaimer

   EN    FR    IT 

 









Legend :    VFR   Marginal VFR   IFR   Intensive IFR   Very Intensive IFR
Visi :
Ceiling :
>= 8 km
>= 3000ft
5 to 8 km
1000 to 3000 ft
1500m to 5 km
500 to 1000 ft
800 to 1500m
200 to 500 ft
< 800m
< 200 ft
Symbols :   Thunderstorms  Fog  Heavy snow  Heavy precipitations  Wind > 20 kt






- Airport Elevation : 7 ft


RJOI - Iwakuni Marine Corps Air Station

CURRENT METAR :
  • 221955Z 29005KT 9999 SKC 08/M03 A3027 RMK SLP248 T00781028

EXPIRED METARs :
  • 221855Z 27007KT 9999 SKC 08/M02 A3025 RMK SLP244 T00831017
  • 221755Z 26008KT 9999 FEW030 09/M02 A3024 RMK SLP241 T00891017 10106 20083 51003

TAF TAF RJOI
Valid from the 22 at 13:00 until the 23 at 13:00 UTC


2213/2313 27010G18KT 9999 FEW030 SCT200 620504 510006 QNH3022INS
BECMG 2215/2217 31012G20KT 9999 SCT030 600000 510006 QNH3022INS
FM222200 33010G15KT 9999 SCT035 510006 QNH3031INS
FM230300 33008KT 9999 FEW030 500000 QNH3028INS T03/2221Z T14/2306Z



MET'MAP, your aeronautical weather chart ! - Copyright ORBIFLY December 2007 - Disclaimer

ORBIFLY MET'MAP TEAM :

Programming & Development : Alexandra Zaïnal
Concept & original design : Baudouin d'Aumeries
Assistance for programming : Marc-Olivier Méhu
Technical & hardware support : Manuel Goepfert

Contact : metmap@orbifly.com




SOURCES & CREDITS :

   NOAA       Earth
Advisory